Terminal Aerodrome Forecast
Issued by NWS

Home | Current Version | Previous Version | Text Only | Print | Product List | Glossary On
Versions: 1 2 3 4 5 6 7 8 9 10 11 12
000
FTUS46 KHNX 201136
TAFFAT
TAF
KFAT 201136Z 2012/2112 31005KT P6SM SKC
     FM210000 31010KT P6SM SCT100 BKN250
     FM210600 31012KT P6SM OVC050=

USA.gov is the U.S. government's official web portal to all federal, state and local government web resources and services.